• Join FlightAware (Why Join?)
  • Login
  • US Flag 
01:36PM EDT


 

Airport Tracker/Info


-or-


 

Live Flight TrackerFlight Track Log ✈ SWA2139 ✈ 05-Jul-2013 ✈ KSAN - KSMF

Flight Track Log - Related Links

Times and Time Zones

All times are in EDT time to prevent confusion due to time zone crossing. See the SWA2139 flight status page for this flight to view local times or setup timezone preferences in your user account.

Time Position Orientation Groundspeed Altitude Reporting Facility
EDT Latitude Longitude Course Direction KTS MPH feet Rate Location/Type
02:32PM 32.7428 -117.2250 288° West 177 204 1,500  Level Los Angeles Center
02:33PM 32.7617 -117.2942 288° West 221 254 3,700 1,980 Climbing Los Angeles Center
02:34PM 32.7786 -117.3611 287° West 253 291 5,600 2,580 Climbing Los Angeles Center
02:35PM 32.8147 -117.4678 292° West 275 316 9,100 2,700 Climbing Los Angeles Center
02:36PM 32.8703 -117.5400 312° West 305 351 11,200 2,160 Climbing Los Angeles Center
02:37PM 32.9381 -117.6044 321° Northwest 314 361 13,700 1,740 Climbing Los Angeles Center
02:38PM 33.0244 -117.6872 321° Northwest 331 381 15,200 1,620 Climbing Los Angeles Center
02:39PM 33.1106 -117.7986 313° West 378 435 17,400 2,100 Climbing Los Angeles Center
02:40PM 33.1869 -117.8911 315° West 389 448 19,600 1,860 Climbing Los Angeles Center
02:42PM 33.2656 -117.9847 315° West 396 456 21,300 1,560 Climbing Los Angeles Center
02:43PM 33.3478 -118.0825 315° West 411 473 22,900 1,440 Climbing Los Angeles Center
02:44PM 33.4322 -118.1833 315° West 424 488 24,400 1,260 Climbing Los Angeles Center
02:45PM 33.5183 -118.2867 315° West 433 498 25,600 1,500 Climbing Los Angeles Center
02:46PM 33.6533 -118.3608 335° Northwest 450 518 27,600 1,380 Climbing Los Angeles Center
02:47PM 33.7758 -118.3903 349° North 469 540 28,500 960 Climbing Los Angeles Center
02:48PM 33.9233 -118.4300 347° North 476 548 29,600 1,560 Climbing Los Angeles Center
02:49PM 34.0706 -118.4939 340° North 468 539 32,100 1,680 Climbing Los Angeles Center
02:50PM 34.1639 -118.5375 339° North 455 524 33,500 1,200 Climbing Los Angeles Center
02:51PM 34.3028 -118.6011 339° North 447 514 34,600 1,020 Climbing Los Angeles Center
02:52PM 34.4189 -118.6528 340° North 446 513 35,700 660 Climbing Los Angeles Center
02:53PM 34.5353 -118.7044 340° North 445 512 36,000 120 Climbing Los Angeles Center
02:54PM 34.6736 -118.7706 339° North 446 513 36,000  Level Los Angeles Center
02:55PM 34.7897 -118.8242 339° North 449 517 36,000  Level Los Angeles Center
02:56PM 34.8958 -118.8725 340° North 448 516 36,000  Level Los Angeles Center
02:57PM 35.0353 -118.9364 339° North 448 516 36,000  Level Los Angeles Center
02:58PM 35.1503 -118.9892 339° North 444 511 36,000  Level Los Angeles Center
02:59PM 35.2669 -119.0439 339° North 448 516 36,000  Level Los Angeles Center
03:01PM 35.3847 -119.0975 340° North 451 519 36,000  Level Los Angeles Center
03:02PM 35.5247 -119.1628 339° North 450 518 36,000  Level Los Angeles Center
03:03PM 35.6622 -119.2283 339° North 445 512 36,000  Level Los Angeles Center
03:04PM 35.7789 -119.2844 339° North 448 516 36,000  Level Los Angeles Center
03:05PM 35.8944 -119.3397 339° North 447 514 36,000  Level Los Angeles Center
03:05PM 35.9625 -119.3725 339° North 454 522 36,000  Level Oakland Center
03:06PM 36.0781 -119.4258 340° North 450 518 36,000  Level Oakland Center
03:07PM 36.1939 -119.4806 339° North 448 516 36,000  Level Oakland Center
03:08PM 36.3117 -119.5389 338° Northwest 455 524 36,000  Level Oakland Center
03:09PM 36.4281 -119.5942 339° North 452 520 36,000  Level Oakland Center
03:10PM 36.5461 -119.6511 339° North 455 524 36,000  Level Oakland Center
03:11PM 36.6536 -119.7256 331° Northwest 448 516 36,000  Level Oakland Center
03:12PM 36.7789 -119.8275 327° Northwest 448 516 36,000  Level Oakland Center
03:13PM 36.8833 -119.9083 328° Northwest 445 512 36,000 -1,080 Level Oakland Center
03:14PM 36.9875 -119.9922 327° Northwest 446 513 33,800 -2,460 Descending Oakland Center
03:15PM 37.0989 -120.0836 327° Northwest 449 517 31,000 -2,460 Descending Oakland Center
03:17PM 37.2039 -120.1681 327° Northwest 448 516 28,800 -2,160 Descending Oakland Center
03:18PM 37.3017 -120.2489 327° Northwest 426 490 26,600 -2,160 Descending Oakland Center
03:19PM 37.3978 -120.3250 328° Northwest 411 473 24,500 -1,620 Descending Oakland Center
03:20PM 37.4858 -120.4053 324° Northwest 392 451 23,400 -1,080 Descending Oakland Center
03:20PM 37.5667 -120.4833 323° Northwest 384 442 22,600 -1,020 Descending Northern Cal TRACON
03:21PM 37.6500 -120.5667 322° Northwest 382 440 21,600 -1,020 Descending Northern Cal TRACON
03:22PM 37.7167 -120.6333 322° Northwest 373 429 20,700 -1,020 Descending Northern Cal TRACON
03:23PM 37.8000 -120.7167 322° Northwest 371 427 19,700 -1,020 Descending Northern Cal TRACON
03:24PM 37.8833 -120.8000 322° Northwest 362 417 18,700 -1,140 Descending Northern Cal TRACON
03:25PM 37.9500 -120.8833 315° West 363 418 17,500 -1,140 Descending Northern Cal TRACON
03:26PM 38.0167 -120.9500 322° Northwest 361 415 16,600 -1,020 Descending Northern Cal TRACON
03:27PM 38.0633 -120.9897 326° Northwest 356 410 16,100 -1,020 Descending Oakland Center
03:28PM 38.1272 -121.0794 312° West 345 397 15,100 -1,020 Descending Oakland Center
03:29PM 38.1892 -121.1719 310° West 344 396 14,100 -1,080 Descending Oakland Center
03:30PM 38.2503 -121.2625 311° West 337 388 13,000 -1,380 Descending Oakland Center
03:31PM 38.3103 -121.3517 311° West 331 381 11,300 -1,440 Descending Oakland Center
03:32PM 38.3708 -121.4408 311° West 329 379 10,100 -1,020 Descending Oakland Center
03:33PM 38.4269 -121.5261 310° West 313 360 9,300 -1,200 Descending Oakland Center
03:34PM 38.4936 -121.5906 323° Northwest 302 348 7,700 -1,560 Descending Oakland Center
03:35PM 38.5664 -121.6458 329° Northwest 302 348 6,200 -1,080 Descending Oakland Center
03:36PM 38.6356 -121.6958 331° Northwest 287 330 5,600 -300 Descending Oakland Center
03:37PM 38.6994 -121.6925 North 227 261 5,600 -780 Level Oakland Center
03:38PM 38.7456 -121.6900 North 174 200 4,100 -1,620 Descending Oakland Center
03:39PM 38.7758 -121.6453 49° Northeast 167 192 2,300 -1,560 Descending Oakland Center
03:40PM 38.7564 -121.6031 121° Southeast 150 173 1,000 -1,020 Descending Oakland Center
03:41PM 38.7172 -121.5994 176° South 144 166 300 -720 Descending Oakland Center